Time;durP1;ratioP1;P1;durP2;ratioP2;P2;SDS_P1;SDS_P2;PMS_P1;PMS_P2;Temp;Humidity;BMP_temperature;BMP_pressure;BME280_temperature;BME280_humidity;BME280_pressure;Samples;Min_cycle;Max_cycle;Signal;HPM_P1;HPM_P2
2023/01/06 00:01:23;;;;;;;25.70;5.93;;;;;;;;;;4974739;28;20046;-67
2023/01/06 00:03:50;;;;;;;27.13;6.40;;;;;;;;;;4958359;28;20047;-67
2023/01/06 00:06:17;;;;;;;21.25;7.20;;;;;;;;;;4958482;28;20051;-68
2023/01/06 00:08:43;;;;;;;30.33;5.55;;;;;;;;;;4973979;28;20046;-68
2023/01/06 00:11:10;;;;;;;27.02;6.20;;;;;;;;;;4973448;28;20061;-67
2023/01/06 00:13:36;;;;;;;24.20;5.50;;;;;;;;;;4975063;28;20491;-68
2023/01/06 00:16:06;;;;;;;21.63;5.50;;;;;;;;;;4974859;28;20050;-67
2023/01/06 00:18:32;;;;;;;21.92;5.47;;;;;;;;;;4974585;28;20047;-68
2023/01/06 00:20:58;;;;;;;5.90;2.47;;;;;;;;;;4974389;28;20062;-68
2023/01/06 00:23:25;;;;;;;14.05;4.75;;;;;;;;;;4974188;28;20047;-67
2023/01/06 00:25:51;;;;;;;21.60;4.00;;;;;;;;;;4968208;28;20503;-67
2023/01/06 00:28:17;;;;;;;16.48;4.25;;;;;;;;;;4958199;28;20055;-67
2023/01/06 00:30:43;;;;;;;16.38;4.72;;;;;;;;;;4973882;28;20059;-67
2023/01/06 00:33:09;;;;;;;13.80;4.25;;;;;;;;;;4971627;28;20161;-67
2023/01/06 00:35:36;;;;;;;10.98;3.65;;;;;;;;;;4974863;28;20126;-67
2023/01/06 00:38:02;;;;;;;10.40;3.10;;;;;;;;;;4955715;28;20046;-67
2023/01/06 00:40:28;;;;;;;9.70;3.33;;;;;;;;;;4957359;28;20082;-67
2023/01/06 00:42:54;;;;;;;7.13;2.83;;;;;;;;;;4973358;28;20404;-67
2023/01/06 00:45:20;;;;;;;11.18;2.78;;;;;;;;;;4974813;28;20051;-67
2023/01/06 00:47:46;;;;;;;11.20;3.45;;;;;;;;;;4959980;28;20055;-67
2023/01/06 00:50:12;;;;;;;8.18;2.42;;;;;;;;;;4967096;28;20058;-67
2023/01/06 00:52:38;;;;;;;12.57;3.25;;;;;;;;;;4962706;28;20407;-67
2023/01/06 00:55:05;;;;;;;9.93;3.92;;;;;;;;;;4991129;28;20046;-67
2023/01/06 00:57:31;;;;;;;10.40;4.10;;;;;;;;;;4981996;28;20047;-67
2023/01/06 00:59:57;;;;;;;13.20;4.15;;;;;;;;;;4976432;28;20039;-67
2023/01/06 01:02:23;;;;;;;14.15;4.60;;;;;;;;;;4978735;28;20078;-67
2023/01/06 01:04:49;;;;;;;11.95;4.50;;;;;;;;;;4974271;28;20054;-67
2023/01/06 01:07:15;;;;;;;14.23;5.88;;;;;;;;;;4940196;28;20054;-67
2023/01/06 01:09:41;;;;;;;13.07;5.15;;;;;;;;;;4953124;29;20113;-67
2023/01/06 01:12:11;;;;;;;17.05;5.40;;;;;;;;;;4957765;28;20419;-67
2023/01/06 01:14:40;;;;;;;15.60;5.70;;;;;;;;;;4988980;28;20476;-66
2023/01/06 01:17:06;;;;;;;14.75;5.60;;;;;;;;;;4974999;28;20137;-66
2023/01/06 01:19:32;;;;;;;24.88;7.00;;;;;;;;;;4988651;28;20042;-67
2023/01/06 01:21:58;;;;;;;16.38;6.68;;;;;;;;;;4973152;28;20042;-67
2023/01/06 01:24:24;;;;;;;12.48;4.97;;;;;;;;;;4973924;28;20049;-67
2023/01/06 01:26:50;;;;;;;17.67;5.78;;;;;;;;;;4958923;28;20038;-67
2023/01/06 01:29:18;;;;;;;10.77;5.70;;;;;;;;;;4947811;28;20105;-67
2023/01/06 01:31:44;;;;;;;14.18;5.40;;;;;;;;;;4987412;28;20126;-67
2023/01/06 01:34:11;;;;;;;11.85;5.30;;;;;;;;;;4992695;28;20096;-67
2023/01/06 01:36:37;;;;;;;12.65;6.07;;;;;;;;;;4972609;28;20055;-67
2023/01/06 01:39:03;;;;;;;15.90;6.60;;;;;;;;;;4972589;28;20054;-67
2023/01/06 01:41:29;;;;;;;13.13;6.10;;;;;;;;;;4956932;28;20512;-67
2023/01/06 01:43:58;;;;;;;12.30;5.32;;;;;;;;;;5005962;23;20698;-67
2023/01/06 01:46:29;;;;;;;11.52;5.53;;;;;;;;;;4998742;23;20061;-67
2023/01/06 01:48:57;;;;;;;9.45;4.72;;;;;;;;;;4992548;28;20484;-67
2023/01/06 01:51:26;;;;;;;10.95;5.00;;;;;;;;;;4972178;28;20050;-67
2023/01/06 01:53:55;;;;;;;18.42;5.25;;;;;;;;;;4986679;28;20080;-67
2023/01/06 01:56:30;;;;;;;13.15;5.13;;;;;;;;;;4986761;28;20057;-67
2023/01/06 01:59:07;;;;;;;15.07;5.13;;;;;;;;;;5008280;23;20087;-67
2023/01/06 02:01:34;;;;;;;14.43;5.40;;;;;;;;;;5019098;23;20050;-66
2023/01/06 02:04:01;;;;;;;12.15;3.92;;;;;;;;;;5016850;23;20114;-67
2023/01/06 02:06:27;;;;;;;13.30;3.92;;;;;;;;;;4975938;28;20086;-67
2023/01/06 02:09:16;;;;;;;10.60;3.85;;;10.60;99.90;;;;;;4971944;28;20039;-67
2023/01/06 02:11:42;;;;;;;8.75;3.20;;;;;;;;;;4894202;29;20064;-67
2023/01/06 02:14:13;;;;;;;8.55;3.45;;;;;;;;;;4898979;29;20139;-67
2023/01/06 02:16:46;;;;;;;10.48;2.97;;;;;;;;;;4911385;29;20116;-67
2023/01/06 02:19:16;;;;;;;7.68;2.40;;;;;;;;;;4888744;29;20143;-67
2023/01/06 02:21:55;;;;;;;4.82;2.22;;;;;;;;;;4893136;29;20064;-67
2023/01/06 02:24:35;;;;;;;11.20;2.88;;;;;;;;;;4903044;29;20080;-67
2023/01/06 02:27:13;;;;;;;7.40;2.67;;;;;;;;;;4900769;29;20044;-66
2023/01/06 02:29:41;;;;;;;6.22;2.83;;;;;;;;;;4893849;29;20426;-66
2023/01/06 02:32:13;;;;;;;7.15;1.98;;;;;;;;;;4897124;29;20521;-66
2023/01/06 02:34:45;;;;;;;5.97;2.78;;;;;;;;;;4905055;29;20056;-67
2023/01/06 02:37:21;;;;;;;6.25;3.40;;;;;;;;;;4903347;29;20052;-67
2023/01/06 02:40:00;;;;;;;8.15;3.13;;;;;;;;;;4893125;29;20045;-67
2023/01/06 02:42:35;;;;;;;7.72;3.90;;;;;;;;;;4878674;29;20060;-66
2023/01/06 02:45:39;;;;;;;8.93;3.80;;;;;;;;;;4908777;29;20048;-67
2023/01/06 02:48:08;;;;;;;7.95;3.40;;;;;;;;;;4894125;29;20054;-67
2023/01/06 02:50:39;;;;;;;9.68;3.90;;;;;;;;;;4903819;29;20083;-66
2023/01/06 02:53:22;;;;;;;10.70;4.70;;;;;;;;;;4932124;29;20408;-67
2023/01/06 02:55:50;;;;;;;9.85;4.63;;;;;;;;;;4921600;29;20055;-67
2023/01/06 02:58:26;;;;;;;8.25;4.30;;;;;;;;;;4942872;29;20047;-66
2023/01/06 03:00:56;;;;;;;9.98;4.45;;;;;;;;;;4940593;29;20159;-67
2023/01/06 03:03:23;;;;;;;5.72;3.25;;;;;;;;;;4926741;29;20460;-67
2023/01/06 03:05:52;;;;;;;9.68;4.90;;;;;;;;;;4916564;29;20055;-67
2023/01/06 03:08:21;;;;;;;7.97;3.95;;;;;;;;;;4930931;29;20588;-66
2023/01/06 03:10:48;;;;;;;8.70;4.30;;;;;;;;;;4933845;29;20048;-66
2023/01/06 03:13:14;;;;;;;11.75;4.75;;;;;;;;;;4916324;29;20287;-66
2023/01/06 03:15:40;;;;;;;8.15;4.45;;;;;;;;;;4941961;29;20047;-66
2023/01/06 03:18:07;;;;;;;8.82;4.95;;;;;;;;;;4933596;29;20500;-66
2023/01/06 03:20:33;;;;;;;6.97;3.88;;;;;;;;;;4965277;28;20570;-66
2023/01/06 03:22:59;;;;;;;12.43;5.93;;;;;;;;;;4954129;28;20058;-66
2023/01/06 03:25:25;;;;;;;11.13;5.45;;;;;;;;;;4952921;29;20047;-67
2023/01/06 03:27:51;;;;;;;10.10;6.45;;;;;;;;;;4953303;28;20055;-66
2023/01/06 03:30:17;;;;;;;11.80;6.18;;;;;;;;;;4961107;28;20051;-66
2023/01/06 03:32:48;;;;;;;9.40;7.18;;;;;;;;;;4969577;28;20049;-66
2023/01/06 03:35:45;;;;;;;11.05;6.63;;;10.50;99.90;;;;;;4962784;28;20089;-66
2023/01/06 03:38:20;;;;;;;10.98;6.03;;;;;;;;;;4936620;29;20098;-67
2023/01/06 03:40:57;;;;;;;12.65;6.65;;;;;;;;;;4968593;28;20047;-67
2023/01/06 03:43:29;;;;;;;9.30;5.95;;;;;;;;;;4971107;28;20051;-67
2023/01/06 03:46:01;;;;;;;14.13;6.45;;;;;;;;;;4967997;28;20047;-67
2023/01/06 03:48:36;;;;;;;12.82;5.82;;;;;;;;;;4950468;28;20122;-66
2023/01/06 03:51:08;;;;;;;7.13;4.35;;;;;;;;;;4963312;28;20535;-67
2023/01/06 03:53:37;;;;;;;9.23;4.55;;;;;;;;;;4959419;28;20039;-67
2023/01/06 03:56:16;;;;;;;7.43;4.28;;;;;;;;;;4935874;29;20126;-66
2023/01/06 03:58:44;;;;;;;7.50;4.53;;;;;;;;;;4936341;28;20054;-67
2023/01/06 04:01:10;;;;;;;7.93;5.57;;;;;;;;;;4956434;28;20102;-67
2023/01/06 04:03:36;;;;;;;5.60;2.90;;;;;;;;;;4952042;28;20050;-66
2023/01/06 04:06:02;;;;;;;7.07;3.20;;;;;;;;;;4986595;28;20058;-67
2023/01/06 04:08:28;;;;;;;7.10;3.47;;;;;;;;;;4974646;28;20411;-66
2023/01/06 04:10:54;;;;;;;14.07;3.40;;;;;;;;;;4974470;28;20046;-67
2023/01/06 04:13:20;;;;;;;6.75;2.72;;;;;;;;;;4976812;28;20089;-66
2023/01/06 04:15:46;;;;;;;5.30;2.58;;;;;;;;;;4984031;28;20086;-66
2023/01/06 04:18:12;;;;;;;9.48;2.78;;;;;;;;;;4957690;28;20086;-67
2023/01/06 04:20:38;;;;;;;9.68;3.35;;;;;;;;;;4961229;28;20050;-67
2023/01/06 04:23:04;;;;;;;7.07;3.08;;;;;;;;;;4977882;28;20054;-67
2023/01/06 04:25:30;;;;;;;8.98;2.95;;;;;;;;;;4984239;28;20039;-67
2023/01/06 04:27:56;;;;;;;5.30;2.33;;;;;;;;;;4987411;28;20174;-67
2023/01/06 04:30:23;;;;;;;4.28;2.05;;;;;;;;;;4978940;28;20053;-66
2023/01/06 04:32:49;;;;;;;7.22;2.65;;;;;;;;;;4984503;28;20059;-67
2023/01/06 04:35:15;;;;;;;5.82;2.35;;;;;;;;;;4978947;28;20043;-66
2023/01/06 04:37:41;;;;;;;12.45;2.58;;;;;;;;;;4974298;28;20074;-67
2023/01/06 04:40:07;;;;;;;6.35;2.88;;;;;;;;;;4973825;28;20047;-67
2023/01/06 04:43:03;;;;;;;5.82;2.08;;;;;;;;;;4975218;28;20050;-67
2023/01/06 04:45:20;;;;;;;4.82;1.90;;;;;;;;;;4981019;28;20054;-69
2023/01/06 04:47:46;;;;;;;4.13;2.35;;;;;;;;;;4992836;28;20057;-67
2023/01/06 04:50:12;;;;;;;5.38;2.33;;;;;;;;;;4990032;28;20046;-67
2023/01/06 04:52:38;;;;;;;8.02;2.40;;;;;;;;;;4971445;28;20046;-67
2023/01/06 04:55:05;;;;;;;7.82;2.60;;;;;;;;;;4974158;28;20090;-67
2023/01/06 04:57:31;;;;;;;10.63;2.38;;;;;;;;;;4974962;28;20097;-67
2023/01/06 04:59:57;;;;;;;8.52;3.05;;;;;;;;;;4963762;28;20046;-67
2023/01/06 05:02:23;;;;;;;5.05;2.10;;;;;;;;;;4993193;28;20053;-67
2023/01/06 05:04:49;;;;;;;4.15;2.47;;;;;;;;;;4971533;28;20050;-66
2023/01/06 05:07:15;;;;;;;5.25;2.22;;;;;;;;;;4987431;28;20511;-67
2023/01/06 05:09:41;;;;;;;6.30;2.25;;;;;;;;;;4983934;28;20585;-67
2023/01/06 05:12:07;;;;;;;8.85;2.70;;;;;;;;;;4977312;28;20130;-68
2023/01/06 05:14:33;;;;;;;5.13;3.10;;;;;;;;;;4986981;28;20058;-67
2023/01/06 05:16:59;;;;;;;8.32;2.70;;;;;;;;;;4973986;28;20815;-68
2023/01/06 05:19:25;;;;;;;8.80;3.20;;;;;;;;;;4976568;28;20042;-67
2023/01/06 05:21:51;;;;;;;7.70;2.70;;;;;;;;;;4976409;28;20054;-67
2023/01/06 05:24:17;;;;;;;9.98;4.15;;;;;;;;;;4987088;28;20058;-67
2023/01/06 05:26:43;;;;;;;7.30;3.38;;;;;;;;;;4958432;28;20051;-66
2023/01/06 05:29:12;;;;;;;7.85;3.78;;;;;;;;;;4987190;28;20039;-67
2023/01/06 05:31:38;;;;;;;3.47;2.83;;;;;;;;;;4971400;28;20078;-67
2023/01/06 05:34:04;;;;;;;8.77;4.22;;;;;;;;;;4979234;28;20161;-67
2023/01/06 05:36:30;;;;;;;7.82;3.88;;;;;;;;;;4987648;28;20084;-67
2023/01/06 05:38:56;;;;;;;6.03;4.20;;;;;;;;;;4970980;28;20509;-67
2023/01/06 05:41:44;;;;;;;7.70;4.13;;;;;;;;;;5036696;23;20050;-66
2023/01/06 05:44:10;;;;;;;6.65;4.18;;;;;;;;;;4994890;28;20510;-67
2023/01/06 05:46:36;;;;;;;8.07;4.90;;;;;;;;;;4994772;28;20046;-67
2023/01/06 05:49:02;;;;;;;9.70;4.57;;;;;;;;;;4992795;28;20038;-67
2023/01/06 05:51:28;;;;;;;7.60;4.70;;;;;;;;;;4999750;28;20037;-67
2023/01/06 05:53:55;;;;;;;6.35;4.25;;;;;;;;;;4986937;28;20072;-67
2023/01/06 05:56:22;;;;;;;8.23;3.95;;;;;;;;;;5000873;28;20093;-67
2023/01/06 05:58:49;;;;;;;8.98;3.80;;;;;;;;;;4996654;28;20082;-67
2023/01/06 06:01:25;;;;;;;8.48;3.92;;;;;;;;;;4989854;28;20049;-67
2023/01/06 06:03:52;;;;;;;5.10;3.88;;;;;;;;;;4992360;28;20104;-67
2023/01/06 06:06:18;;;;;;;7.25;3.53;;;;;;;;;;4993927;28;20042;-67
2023/01/06 06:08:45;;;;;;;6.68;3.45;;;;;;;;;;4994613;28;20072;-67
2023/01/06 06:11:12;;;;;;;9.57;4.20;;;;;;;;;;5009229;28;20098;-67
2023/01/06 06:13:38;;;;;;;6.55;3.85;;;;;;;;;;4998238;28;20049;-67
2023/01/06 06:16:04;;;;;;;9.27;3.38;;;;;;;;;;4993291;28;20045;-67
2023/01/06 06:18:30;;;;;;;6.20;3.47;;;;;;;;;;4975656;28;20042;-67
2023/01/06 06:21:03;;;;;;;8.63;3.65;;;;;;;;;;4991411;28;20038;-67
2023/01/06 06:23:30;;;;;;;7.28;3.50;;;;;;;;;;5000557;28;20038;-67
2023/01/06 06:25:56;;;;;;;8.93;4.15;;;;;;;;;;5005781;28;20491;-68
2023/01/06 06:28:22;;;;;;;8.55;3.97;;;;;;;;;;5000318;28;20494;-67
2023/01/06 06:30:48;;;;;;;6.80;4.13;;;;;;;;;;4982192;28;20100;-68
2023/01/06 06:33:14;;;;;;;5.88;4.15;;;;;;;;;;5002626;28;20045;-67
2023/01/06 06:35:40;;;;;;;5.28;3.25;;;;;;;;;;4998239;28;20124;-67
2023/01/06 06:38:06;;;;;;;13.85;5.03;;;;;;;;;;5011288;28;20088;-68
2023/01/06 06:40:32;;;;;;;8.50;5.50;;;;;;;;;;4997060;28;20467;-68
2023/01/06 06:42:58;;;;;;;7.03;5.47;;;;;;;;;;4978153;28;20046;-69
2023/01/06 06:45:24;;;;;;;8.60;6.10;;;;;;;;;;4991944;28;20054;-70
2023/01/06 06:47:54;;;;;;;11.98;5.25;;;;;;;;;;4975009;28;20426;-69
2023/01/06 06:50:20;;;;;;;7.82;5.13;;;;;;;;;;4991139;28;20133;-69
2023/01/06 06:52:46;;;;;;;6.40;2.95;;;;;;;;;;4990529;28;20041;-68
2023/01/06 06:55:12;;;;;;;8.52;4.15;;;;;;;;;;4973782;28;20741;-68
2023/01/06 06:57:38;;;;;;;6.72;3.78;;;;;;;;;;4985268;28;20053;-68
2023/01/06 07:00:04;;;;;;;3.75;2.80;;;;;;;;;;4997539;28;20046;-69
2023/01/06 07:02:30;;;;;;;5.75;3.50;;;;;;;;;;5006400;28;20554;-68
2023/01/06 07:04:56;;;;;;;3.50;2.75;;;;;;;;;;4991837;28;20077;-68
2023/01/06 07:07:25;;;;;;;5.60;2.80;;;;;;;;;;4989296;28;20042;-68
2023/01/06 07:09:52;;;;;;;6.68;3.58;;;;;;;;;;4999041;28;20038;-68
2023/01/06 07:12:18;;;;;;;6.18;3.78;;;;;;;;;;4986275;28;20498;-68
2023/01/06 07:14:44;;;;;;;5.35;3.97;;;;;;;;;;4975250;28;20153;-69
2023/01/06 07:17:10;;;;;;;8.52;3.83;;;;;;;;;;4992255;28;20042;-69
2023/01/06 07:19:36;;;;;;;10.63;6.10;;;;;;;;;;4992344;28;20034;-69
2023/01/06 07:22:02;;;;;;;7.15;5.97;;;;;;;;;;5005925;28;20045;-71
2023/01/06 07:24:28;;;;;;;10.93;5.43;;;;;;;;;;5007531;28;20495;-69
2023/01/06 07:26:54;;;;;;;5.05;3.75;;;;;;;;;;4993224;28;20132;-69
2023/01/06 07:29:20;;;;;;;5.70;2.63;;;;;;;;;;5010088;28;20141;-69
2023/01/06 07:31:46;;;;;;;8.25;2.95;;;;;;;;;;4995104;28;20038;-71
2023/01/06 07:34:12;;;;;;;7.22;3.55;;;;;;;;;;5006747;28;20045;-70
2023/01/06 07:36:38;;;;;;;7.35;2.83;;;;;;;;;;5014879;28;20445;-68
2023/01/06 07:39:04;;;;;;;7.22;3.35;;;;;;;;;;4989480;28;20034;-66
2023/01/06 07:41:31;;;;;;;7.68;3.13;;;;;;;;;;5000486;28;20483;-65
2023/01/06 07:43:57;;;;;;;8.13;3.47;;;;;;;;;;5030640;28;20057;-65
2023/01/06 07:46:23;;;;;;;6.07;2.58;;;;;;;;;;5026417;28;20129;-65
2023/01/06 07:48:49;;;;;;;13.05;2.85;;;;;;;;;;5013247;28;20046;-65
2023/01/06 07:51:15;;;;;;;5.75;1.33;;;;;;;;;;5024618;28;20045;-65
2023/01/06 07:53:41;;;;;;;11.00;1.63;;;;;;;;;;5012857;28;20052;-64
2023/01/06 07:56:07;;;;;;;8.80;1.92;;;;;;;;;;5014079;28;20066;-65
2023/01/06 07:58:33;;;;;;;11.48;1.75;;;;;;;;;;5013302;28;20070;-64
2023/01/06 08:01:04;;;;;;;9.00;1.30;;;;;;;;;;5015818;28;20382;-64
2023/01/06 08:03:30;;;;;;;;;;;8.80;99.90;;;;;;5013859;28;20121;-65
2023/01/06 08:05:56;;;;;;;6.57;1.55;;;;;;;;;;4996971;28;20032;-65
2023/01/06 08:08:22;;;;;;;10.35;2.47;;;;;;;;;;5013033;28;20050;-64
2023/01/06 08:10:48;;;;;;;8.38;2.35;;;;;;;;;;5014138;28;20125;-65
2023/01/06 08:13:14;;;;;;;8.43;1.17;;;;;;;;;;5013760;28;20099;-64
2023/01/06 08:15:40;;;;;;;10.23;1.40;;;;;;;;;;5025385;28;20049;-65
2023/01/06 08:18:07;;;;;;;6.25;0.98;;;;;;;;;;5014172;28;20077;-65
2023/01/06 08:20:33;;;;;;;5.38;1.02;;;;;;;;;;4997503;28;20102;-65
2023/01/06 08:22:59;;;;;;;6.55;1.70;;;;;;;;;;5012416;28;20088;-65
2023/01/06 08:25:25;;;;;;;6.57;1.20;;;;;;;;;;5014503;28;20046;-65
2023/01/06 08:27:51;;;;;;;6.72;1.50;;;;;;;;;;5012032;28;20038;-65
2023/01/06 08:30:20;;;;;;;10.23;1.20;;;;;;;;;;5012097;28;20124;-65
2023/01/06 08:32:47;;;;;;;8.15;1.10;;;;;;;;;;5014261;28;20057;-65
2023/01/06 08:35:13;;;;;;;9.90;1.17;;;;;;;;;;5014293;28;20040;-65
2023/01/06 08:37:39;;;;;;;6.70;1.50;;;;;;;;;;4995994;28;20056;-66
2023/01/06 08:40:05;;;;;;;6.43;1.00;;;;;;;;;;5011834;28;20053;-65
2023/01/06 08:42:31;;;;;;;8.50;1.10;;;;;;;;;;5023320;28;20144;-64
2023/01/06 08:44:57;;;;;;;10.77;1.17;;;;;;;;;;5014116;28;20061;-64
2023/01/06 08:47:23;;;;;;;8.27;1.48;;;;;;;;;;5014302;28;20045;-64
2023/01/06 08:49:49;;;;;;;12.10;1.63;;;;;;;;;;5011547;28;20068;-65
2023/01/06 08:52:15;;;;;;;7.40;1.13;;;;;;;;;;5010918;28;20064;-64
2023/01/06 08:54:41;;;;;;;5.05;1.00;;;;;;;;;;5063502;23;20046;-65
2023/01/06 08:57:08;;;;;;;13.80;1.60;;;;;;;;;;5026947;23;20169;-64
2023/01/06 08:59:34;;;;;;;12.80;1.50;;;;;;;;;;4993296;28;20042;-64
2023/01/06 09:02:00;;;;;;;7.55;1.20;;;;;;;;;;4976737;28;20061;-64
2023/01/06 09:04:26;;;;;;;12.07;2.80;;;;;;;;;;4976584;28;20042;-64
2023/01/06 09:06:52;;;;;;;12.27;1.65;;;;;;;;;;4993161;28;20126;-64
2023/01/06 09:09:18;;;;;;;9.32;1.63;;;;;;;;;;4991155;28;20046;-63
2023/01/06 09:11:45;;;;;;;10.38;1.65;;;;;;;;;;5000070;23;20058;-64
2023/01/06 09:14:14;;;;;;;7.13;1.10;;;;;;;;;;5064959;23;20560;-64
2023/01/06 09:16:41;;;;;;;8.48;1.05;;;;;;;;;;5012394;28;20138;-65
2023/01/06 09:19:09;;;;;;;13.52;1.17;;;;;;;;;;5014465;28;20255;-64
2023/01/06 09:21:35;;;;;;;7.93;1.00;;;;;;;;;;5032727;28;20395;-64
2023/01/06 09:24:01;;;;;;;10.82;0.95;;;;;;;;;;5033183;28;20465;-64
2023/01/06 09:26:27;;;;;;;9.68;1.50;;;;;;;;;;5015277;28;20053;-65
2023/01/06 09:28:53;;;;;;;6.03;1.05;;;;;;;;;;5019002;28;20449;-64
2023/01/06 09:31:19;;;;;;;10.00;2.10;;;;;;;;;;5015782;28;20444;-65
2023/01/06 09:33:45;;;;;;;13.88;1.08;;;;;;;;;;5015082;28;20058;-64
2023/01/06 09:36:11;;;;;;;10.07;1.60;;;;;;;;;;5032571;28;20053;-64
2023/01/06 09:38:38;;;;;;;10.05;1.00;;;;;;;;;;5032901;28;20037;-64
2023/01/06 09:41:19;;;;;;;10.25;2.28;;;;;;;;;;5015511;28;20053;-64
2023/01/06 09:43:49;;;;;;;13.65;2.95;;;;;;;;;;5014632;28;20081;-64
2023/01/06 09:46:18;;;;;;;6.45;1.30;;;;;;;;;;5015218;28;20092;-64
2023/01/06 09:49:06;;;;;;;10.68;1.30;;;;;;;;;;5032336;28;20053;-64
2023/01/06 09:51:33;;;;;;;6.50;1.20;;;;;;;;;;5032560;28;20088;-63
2023/01/06 09:54:13;;;;;;;6.60;1.25;;;;;;;;;;5032514;28;20048;-64
2023/01/06 09:56:41;;;;;;;10.27;1.45;;;;;;;;;;5014497;28;20461;-64
2023/01/06 09:59:11;;;;;;;10.13;1.75;;;;;;;;;;4995561;28;20042;-64
2023/01/06 10:01:44;;;;;;;8.80;1.73;;;;;;;;;;5012870;28;20046;-64
2023/01/06 10:04:14;;;;;;;7.20;1.60;;;;;;;;;;4995320;28;20504;-64
2023/01/06 10:06:45;;;;;;;6.50;1.17;;;;;;;;;;4978941;28;20061;-65
2023/01/06 10:09:34;;;;;;;12.20;1.30;;;;;;;;;;5012689;28;20046;-64
2023/01/06 10:12:09;;;;;;;7.57;1.20;;;;;;;;;;5017841;28;20041;-64
2023/01/06 10:14:41;;;;;;;8.90;1.48;;;;;;;;;;5031847;28;20141;-64
2023/01/06 10:17:07;;;;;;;7.88;1.20;;;;;;;;;;5031832;28;20091;-64
2023/01/06 10:20:22;;;;;;;10.82;2.33;;;9.70;99.90;;;;;;5014028;28;20049;-64
2023/01/06 10:22:56;;;;;;;12.50;2.83;;;;;;;;;;5009699;28;20049;-64
2023/01/06 10:25:26;;;;;;;9.00;1.45;;;;;;;;;;5032381;28;20076;-64
2023/01/06 10:27:59;;;;;;;10.55;1.23;;;;;;;;;;5032090;28;20072;-64
2023/01/06 10:30:28;;;;;;;5.38;0.93;;;;;;;;;;5032346;28;20060;-64
2023/01/06 10:32:54;;;;;;;9.75;2.22;;;;;;;;;;5030944;28;20056;-64
2023/01/06 10:35:22;;;;;;;11.38;2.50;;;;;;;;;;5014524;28;20049;-64
2023/01/06 10:37:49;;;;;;;10.93;1.98;;;;;;;;;;5014085;28;20083;-64
2023/01/06 10:40:25;;;;;;;9.43;2.22;;;;;;;;;;5031990;28;20056;-64
2023/01/06 10:42:56;;;;;;;11.75;1.98;;;;;;;;;;5031961;28;20079;-64
2023/01/06 10:45:23;;;;;;;10.18;1.50;;;;;;;;;;5032373;28;20128;-64
2023/01/06 10:47:49;;;;;;;11.85;1.55;;;;;;;;;;5013226;28;20490;-64
2023/01/06 10:50:17;;;;;;;8.52;1.35;;;;;;;;;;5031861;28;20111;-64
2023/01/06 10:52:43;;;;;;;12.23;1.88;;;;;;;;;;5031282;28;20510;-65
2023/01/06 10:55:26;;;;;;;17.20;2.90;;;;;;;;;;5031398;28;20128;-64
2023/01/06 10:57:53;;;;;;;10.68;2.95;;;;;;;;;;5031827;28;20420;-64
2023/01/06 11:00:21;;;;;;;10.75;2.20;;;;;;;;;;5032125;28;20053;-64
2023/01/06 11:02:48;;;;;;;23.10;3.75;;;;;;;;;;5032925;28;20053;-64
2023/01/06 11:05:15;;;;;;;14.35;2.03;;;;;;;;;;5018112;28;20502;-64
2023/01/06 11:07:46;;;;;;;12.20;1.77;;;;;;;;;;5035801;28;20045;-65
2023/01/06 11:10:20;;;;;;;11.32;1.63;;;;;;;;;;5035241;28;20050;-65
2023/01/06 11:12:46;;;;;;;9.52;1.65;;;;;;;;;;5035484;28;20047;-64
2023/01/06 11:15:19;;;;;;;12.23;1.65;;;;;;;;;;5017510;28;20050;-64
2023/01/06 11:17:45;;;;;;;11.02;2.10;;;;;;;;;;5016334;28;20049;-64
2023/01/06 11:20:18;;;;;;;5.78;1.17;;;;;;;;;;4994217;28;20080;-64
2023/01/06 11:22:44;;;;;;;9.23;2.00;;;;;;;;;;5014338;28;20133;-65
2023/01/06 11:25:19;;;;;;;9.35;1.98;;;;;;;;;;4998627;28;20092;-64
2023/01/06 11:27:46;;;;;;;7.85;1.95;;;;;;;;;;4998118;28;20048;-64
2023/01/06 11:30:20;;;;;;;6.50;1.00;;;;;;;;;;5025221;28;20049;-64
2023/01/06 11:32:46;;;;;;;12.25;1.60;;;;;;;;;;5032754;28;20577;-65
2023/01/06 11:35:18;;;;;;;6.10;1.50;;;;;;;;;;4992825;28;20045;-64
2023/01/06 11:37:45;;;;;;;8.20;1.20;;;;;;;;;;5027253;28;20064;-64
2023/01/06 11:40:17;;;;;;;14.57;1.88;;;;;;;;;;4999156;28;20092;-64
2023/01/06 11:42:44;;;;;;;10.50;1.42;;;;;;;;;;5022714;28;20496;-64
2023/01/06 11:45:28;;;;;;;13.50;2.10;;;;;;;;;;5033660;28;20041;-64
2023/01/06 11:47:54;;;;;;;13.45;3.25;;;;;;;;;;5014912;28;20573;-64
2023/01/06 11:50:20;;;;;;;10.60;1.65;;;;;;;;;;5023611;28;20042;-64
2023/01/06 11:52:58;;;;;;;9.52;2.22;;;;;;;;;;5032794;28;20041;-64
2023/01/06 11:55:26;;;;;;;9.00;1.40;;;;;;;;;;5033573;28;20405;-64
2023/01/06 11:58:24;;;;;;;11.30;1.80;;;;;;;;;;5033260;28;20140;-65
2023/01/06 12:00:55;;;;;;;11.82;3.00;;;;;;;;;;4970462;28;20134;-64
2023/01/06 12:03:34;;;;;;;9.07;1.42;;;;;;;;;;4957740;28;20062;-63
2023/01/06 12:06:11;;;;;;;8.27;1.70;;;;;;;;;;4954252;29;20547;-63
2023/01/06 12:08:44;;;;;;;11.27;1.60;;;;;;;;;;4969889;28;20130;-63
2023/01/06 12:11:14;;;;;;;8.05;1.40;;;;;;;;;;4973699;28;20077;-63
2023/01/06 12:13:40;;;;;;;12.50;1.38;;;;;;;;;;4951480;28;20070;-64
2023/01/06 12:16:16;;;;;;;19.52;2.50;;;;;;;;;;4953654;29;20091;-64
2023/01/06 12:18:42;;;;;;;12.80;1.58;;;;;;;;;;4952465;28;20087;-63
2023/01/06 12:21:12;;;;;;;15.15;1.65;;;;;;;;;;4952461;29;20051;-63
2023/01/06 12:23:40;;;;;;;9.18;1.60;;;;;;;;;;4953591;29;20090;-63
2023/01/06 12:26:12;;;;;;;8.60;1.95;;;;;;;;;;4953767;29;20051;-64
2023/01/06 12:28:40;;;;;;;9.45;2.55;;;;;;;;;;4951642;29;20054;-63
2023/01/06 12:31:14;;;;;;;17.92;2.80;;;;;;;;;;4939848;29;20226;-63
2023/01/06 12:33:45;;;;;;;7.20;1.10;;;;;;;;;;4944750;28;20060;-64
2023/01/06 12:36:27;;;;;;;5.43;1.13;;;;;;;;;;4952432;28;21301;-63
2023/01/06 12:38:55;;;;;;;14.10;1.92;;;;;;;;;;5004434;28;20049;-63
2023/01/06 12:41:30;;;;;;;14.32;2.28;;;;;;;;;;5001588;28;20065;-63
2023/01/06 12:43:59;;;;;;;7.32;1.25;;;;;;;;;;4983356;28;20038;-63
2023/01/06 12:46:28;;;;;;;9.35;1.95;;;;;;;;;;5006453;28;20073;-64
2023/01/06 12:48:59;;;;;;;8.43;1.08;;;;;;;;;;5005735;28;20047;-64
2023/01/06 12:51:53;;;;;;;6.22;1.05;;;10.00;99.90;;;;;;5003236;28;20110;-65
2023/01/06 12:54:33;;;;;;;10.32;1.42;;;;;;;;;;4980765;28;20058;-63
2023/01/06 12:56:59;;;;;;;12.05;2.22;;;;;;;;;;5005920;28;20073;-63
2023/01/06 12:59:25;;;;;;;13.50;3.05;;;;;;;;;;5028371;23;20033;-65
2023/01/06 13:02:14;;;;;;;20.50;5.22;;;;;;;;;;4840339;23;20419;-63
2023/01/06 13:04:51;;;;;;;17.73;3.45;;;;;;;;;;4983264;28;20057;-64
2023/01/06 13:07:36;;;;;;;18.75;3.80;;;;;;;;;;4987933;28;20901;-63
2023/01/06 13:10:02;;;;;;;14.32;2.60;;;;;;;;;;4982067;28;20111;-63
2023/01/06 13:12:51;;;;;;;12.85;2.03;;;;;;;;;;5013190;28;20093;-63
2023/01/06 13:15:30;;;;;;;12.43;2.78;;;;;;;;;;4992568;28;20099;-63
2023/01/06 13:17:59;;;;;;;13.80;2.53;;;;;;;;;;4990833;28;20407;-63
2023/01/06 13:20:39;;;;;;;14.38;2.28;;;;;;;;;;4994005;28;20053;-63
2023/01/06 13:23:32;;;;;;;9.20;1.92;;;10.20;99.90;;;;;;4993988;28;20062;-63
2023/01/06 13:25:58;;;;;;;20.02;3.85;;;;;;;;;;4954269;28;20060;-63
2023/01/06 13:28:41;;;;;;;6.47;1.30;;;;;;;;;;4990614;28;20149;-63
2023/01/06 13:31:22;;;;;;;13.50;2.50;;;;;;;;;;4993757;28;20054;-63
2023/01/06 13:33:51;;;;;;;18.80;2.45;;;;;;;;;;4993689;28;20046;-63
2023/01/06 13:36:44;;;;;;;15.20;2.75;;;9.90;99.90;;;;;;4992638;28;20042;-63
2023/01/06 13:39:16;;;;;;;5.47;1.65;;;;;;;;;;4992200;28;20403;-63
2023/01/06 13:41:44;;;;;;;9.65;2.20;;;;;;;;;;4991066;28;20046;-64
2023/01/06 13:44:17;;;;;;;10.52;2.80;;;;;;;;;;4993296;28;20046;-63
2023/01/06 13:46:45;;;;;;;13.38;3.22;;;;;;;;;;4991287;28;20125;-64
2023/01/06 13:49:11;;;;;;;12.65;2.00;;;;;;;;;;4974864;28;20050;-63
2023/01/06 13:51:39;;;;;;;13.85;1.90;;;;;;;;;;4975878;28;20475;-62
2023/01/06 13:54:05;;;;;;;13.20;2.42;;;;;;;;;;4993308;28;20046;-63
2023/01/06 13:56:32;;;;;;;14.63;3.00;;;;;;;;;;4992581;28;20060;-63
2023/01/06 13:59:17;;;;;;;14.98;2.50;;;9.90;99.90;;;;;;4975811;28;20053;-63
2023/01/06 14:01:43;;;;;;;14.60;2.58;;;;;;;;;;4975029;28;20459;-64
2023/01/06 14:04:44;;;;;;;23.35;5.05;;;;;;;;;;4992583;28;20483;-63
2023/01/06 14:07:11;;;;;;;18.98;4.45;;;;;;;;;;4932256;29;20140;-63
2023/01/06 14:09:38;;;;;;;16.52;4.07;;;;;;;;;;4913364;29;20060;-63
2023/01/06 14:12:14;;;;;;;16.17;3.53;;;;;;;;;;4943124;29;20134;-63
2023/01/06 14:14:42;;;;;;;21.40;3.95;;;;;;;;;;4935152;29;20272;-63
2023/01/06 14:17:26;;;;;;;15.05;2.25;;;;;;;;;;4932301;29;20127;-63
2023/01/06 14:19:53;;;;;;;8.45;2.28;;;;;;;;;;4901138;29;20047;-63
2023/01/06 14:22:21;;;;;;;19.88;3.05;;;;;;;;;;4932826;29;20497;-63
2023/01/06 14:24:59;;;;;;;12.45;1.60;;;;;;;;;;4936164;29;20107;-63
2023/01/06 14:27:54;;;;;;;10.98;1.55;;;;;;;;;;4939213;29;20556;-63
2023/01/06 14:30:30;;;;;;;9.63;1.70;;;;;;;;;;4944905;29;20063;-63
2023/01/06 14:33:04;;;;;;;19.98;2.67;;;;;;;;;;4948353;29;20048;-63
2023/01/06 14:35:42;;;;;;;8.60;1.20;;;;;;;;;;4916116;29;20444;-63
2023/01/06 14:38:17;;;;;;;17.00;2.38;;;;;;;;;;4910081;29;20055;-63
2023/01/06 14:40:53;;;;;;;15.60;1.85;;;;;;;;;;4935030;28;20058;-63
2023/01/06 14:43:41;;;;;;;13.13;1.48;;;;;;;;;;4986515;28;20185;-63
2023/01/06 14:46:21;;;;;;;16.08;2.53;;;;;;;;;;4974629;28;20090;-63
2023/01/06 14:49:14;;;;;;;10.32;1.73;;;;;;;;;;4975292;28;20487;-63